Time;durP1;ratioP1;P1;durP2;ratioP2;P2;SDS_P1;SDS_P2;PMS_P1;PMS_P2;Temp;Humidity;BMP_temperature;BMP_pressure;BME280_temperature;BME280_humidity;BME280_pressure;Samples;Min_cycle;Max_cycle;Signal;HPM_P1;HPM_P2
2022/07/24 00:00:15;;;;;;;22.67;13.23;;;;;;;17.35;69.65;99738.56;5122591;27;20037;-56
2022/07/24 00:02:41;;;;;;;24.88;12.50;;;;;;;17.41;69.88;99740.16;5122768;27;20031;-56
2022/07/24 00:05:07;;;;;;;20.60;11.55;;;;;;;17.25;71.05;99738.59;5120825;27;20048;-55
2022/07/24 00:07:34;;;;;;;19.40;12.55;;;;;;;17.23;71.30;99743.47;5123338;27;20031;-56
2022/07/24 00:10:00;;;;;;;19.65;11.15;;;;;;;17.04;71.68;99746.72;5125966;27;20470;-56
2022/07/24 00:12:25;;;;;;;20.23;11.20;;;;;;;17.01;71.55;99741.06;5115516;27;20035;-56
2022/07/24 00:14:50;;;;;;;20.67;11.68;;;;;;;16.99;71.99;99743.22;5120046;27;20032;-56
2022/07/24 00:17:16;;;;;;;24.25;12.10;;;;;;;16.78;72.15;99747.84;5123375;27;20024;-57
2022/07/24 00:19:41;;;;;;;22.00;11.85;;;;;;;16.63;72.88;99745.09;5125709;27;20042;-56
2022/07/24 00:22:07;;;;;;;23.23;11.93;;;;;;;16.83;71.76;99739.72;5120333;27;20476;-56
2022/07/24 00:24:32;;;;;;;23.13;12.23;;;;;;;16.90;71.38;99736.72;5123141;27;20023;-56
2022/07/24 00:26:57;;;;;;;21.42;12.52;;;;;;;16.86;71.70;99741.88;5119521;27;20024;-57
2022/07/24 00:29:23;;;;;;;25.15;13.13;;;;;;;16.80;73.02;99741.06;5123020;27;20193;-56
2022/07/24 00:31:49;;;;;;;19.25;11.90;;;;;;;16.79;73.83;99733.22;5123580;27;20019;-56
2022/07/24 00:34:14;;;;;;;19.35;11.40;;;;;;;16.76;73.52;99731.03;5119913;27;20208;-55
2022/07/24 00:36:43;;;;;;;23.70;12.60;;;;;;;16.87;73.06;99740.78;5101594;27;20015;-57
2022/07/24 00:39:08;;;;;;;23.27;12.18;;;;;;;16.79;73.43;99733.22;5117527;27;20047;-56
2022/07/24 00:41:33;;;;;;;19.95;11.75;;;;;;;16.80;74.11;99743.78;5088315;27;20092;-55
2022/07/24 00:44:12;;;;;;;21.58;12.65;;;;;;;16.48;74.66;99733.19;5124130;27;20023;-56
2022/07/24 00:46:38;;;;;;;23.50;11.38;;;;;;;16.31;75.79;99740.72;5125177;27;20035;-56
2022/07/24 00:49:05;;;;;;;23.10;11.63;;;;;;;16.29;76.61;99737.47;5122926;27;20046;-57
2022/07/24 00:51:30;;;;;;;17.90;11.10;;;;;;;16.28;76.47;99744.78;5115249;27;20023;-56
2022/07/24 00:53:56;;;;;;;18.52;11.40;;;;;;;16.40;77.21;99744.53;5105106;28;20027;-56
2022/07/24 00:56:21;;;;;;;20.42;11.73;;;;;;;16.33;76.29;99743.97;5119336;27;20019;-56
2022/07/24 00:58:47;;;;;;;25.88;15.23;;;;;;;15.99;76.63;99746.31;5106732;27;20652;-55
2022/07/24 01:01:13;;;;;;;30.17;14.90;;;;;;;15.85;77.41;99743.28;5119717;27;20446;-56
2022/07/24 01:03:38;;;;;;;31.05;16.08;;;;;;;15.94;76.77;99744.41;5120843;27;20035;-56
2022/07/24 01:06:04;;;;;;;22.40;14.38;;;;;;;15.96;76.42;99734.16;5121602;27;20047;-56
2022/07/24 01:08:29;;;;;;;24.10;14.70;;;;;;;16.12;76.02;99743.91;5086454;27;20448;-57
2022/07/24 01:10:54;;;;;;;21.88;13.35;;;;;;;16.21;76.42;99740.72;5094137;27;20373;-57
2022/07/24 01:13:20;;;;;;;21.75;12.88;;;;;;;16.15;75.75;99737.19;5121553;27;20027;-56
2022/07/24 01:15:47;;;;;;;24.50;13.88;;;;;;;16.10;75.89;99743.38;5076351;28;20050;-56
2022/07/24 01:18:12;;;;;;;26.52;12.68;;;;;;;16.20;75.87;99730.94;5121966;27;20086;-57
2022/07/24 01:20:38;;;;;;;18.38;12.90;;;;;;;16.35;75.36;99731.00;5122006;27;20438;-56
2022/07/24 01:23:03;;;;;;;18.90;12.10;;;;;;;16.25;75.90;99725.56;5123933;27;20377;-56
2022/07/24 01:25:29;;;;;;;20.05;12.27;;;;;;;16.12;76.19;99730.41;5105887;27;20027;-55
2022/07/24 01:27:54;;;;;;;21.08;11.77;;;;;;;16.09;78.40;99733.63;5100109;27;20072;-55
2022/07/24 01:30:20;;;;;;;20.20;11.93;;;;;;;16.11;78.04;99728.78;5122142;27;20027;-56
2022/07/24 01:32:45;;;;;;;22.67;12.95;;;;;;;16.06;76.58;99727.97;5113686;27;20027;-56
2022/07/24 01:35:10;;;;;;;24.90;12.93;;;;;;;16.09;76.63;99730.94;5119170;27;20028;-56
2022/07/24 01:37:36;;;;;;;23.02;12.93;;;;;;;16.14;76.08;99730.94;5118155;27;20028;-56
2022/07/24 01:40:02;;;;;;;19.45;12.07;;;;;;;15.97;76.88;99727.66;5107110;27;20079;-56
2022/07/24 01:42:27;;;;;;;20.35;11.10;;;;;;;15.78;77.34;99729.22;5095961;27;20431;-56
2022/07/24 01:44:52;;;;;;;20.85;11.48;;;;;;;15.65;78.62;99723.19;5119379;27;20525;-56
2022/07/24 01:47:18;;;;;;;21.20;12.05;;;;;;;15.42;80.16;99737.94;5118611;28;20026;-56
2022/07/24 01:49:43;;;;;;;19.20;11.52;;;;;;;15.32;80.80;99729.78;5097484;28;20469;-56
2022/07/24 01:52:09;;;;;;;23.30;12.20;;;;;;;15.52;81.12;99739.88;5093373;28;20027;-57
2022/07/24 01:54:34;;;;;;;19.50;12.25;;;;;;;15.60;79.33;99738.56;5119323;27;20571;-56
2022/07/24 01:57:00;;;;;;;20.45;11.55;;;;;;;15.59;79.36;99739.63;5123268;28;20353;-56
2022/07/24 01:59:25;;;;;;;23.27;12.43;;;;;;;15.53;79.68;99744.22;5119818;28;20035;-56
2022/07/24 02:01:50;;;;;;;22.13;11.88;;;;;;;15.40;80.16;99736.56;5119606;28;20093;-56
2022/07/24 02:04:16;;;;;;;17.17;11.52;;;;;;;15.29;80.99;99728.41;5120797;28;20043;-56
2022/07/24 02:06:41;;;;;;;17.55;11.70;;;;;;;15.32;81.15;99732.47;5123684;28;20039;-55
2022/07/24 02:09:07;;;;;;;19.27;11.48;;;;;;;15.56;80.63;99732.06;5119034;28;20027;-56
2022/07/24 02:11:32;;;;;;;22.67;12.77;;;;;;;15.55;79.57;99725.84;5124089;28;20042;-55
2022/07/24 02:13:59;;;;;;;19.60;12.40;;;;;;;15.43;80.19;99733.34;5115011;28;20028;-55
2022/07/24 02:16:25;;;;;;;20.52;12.02;;;;;;;15.48;79.90;99733.38;5119366;28;20466;-56
2022/07/24 02:18:50;;;;;;;23.95;12.43;;;;;;;15.39;80.79;99727.66;5122599;28;20030;-56
2022/07/24 02:21:16;;;;;;;19.92;12.10;;;;;;;15.39;79.59;99732.25;5116487;28;20019;-56
2022/07/24 02:23:41;;;;;;;20.52;11.98;;;;;;;15.44;79.34;99727.69;5110444;28;20027;-55
2022/07/24 02:26:07;;;;;;;19.73;11.98;;;;;;;15.55;78.30;99728.56;5083791;28;20123;-56
2022/07/24 02:28:32;;;;;;;16.98;11.93;;;;;;;15.52;79.17;99720.97;5115603;28;20056;-56
2022/07/24 02:30:57;;;;;;;15.98;10.77;;;;;;;15.68;78.89;99719.16;5117729;28;20026;-56
2022/07/24 02:33:23;;;;;;;18.20;11.52;;;;;;;15.70;77.94;99731.34;5119409;28;20038;-56
2022/07/24 02:35:48;;;;;;;19.20;11.35;;;;;;;15.64;78.52;99723.44;5118245;28;20027;-56
2022/07/24 02:38:14;;;;;;;19.90;11.48;;;;;;;15.52;79.32;99739.88;5125798;28;20030;-56
2022/07/24 02:40:39;;;;;;;15.63;10.52;;;;;;;15.48;80.22;99742.28;5115804;28;20031;-56
2022/07/24 02:43:05;;;;;;;20.90;11.00;;;;;;;15.35;80.32;99739.22;5111007;28;20031;-56
2022/07/24 02:45:30;;;;;;;15.57;10.50;;;;;;;15.35;82.81;99737.38;5125559;27;20027;-55
2022/07/24 02:47:56;;;;;;;15.63;10.27;;;;;;;15.15;83.56;99731.81;5124763;27;20030;-56
2022/07/24 02:50:23;;;;;;;18.40;11.45;;;;;;;15.22;81.95;99740.50;5121601;27;20469;-56
2022/07/24 02:52:49;;;;;;;23.25;11.63;;;;;;;15.24;82.24;99736.47;5121661;27;20031;-57
2022/07/24 02:55:15;;;;;;;19.17;11.55;;;;;;;15.32;80.93;99733.31;5121739;27;20024;-56
2022/07/24 02:57:40;;;;;;;20.27;10.48;;;;;;;15.35;80.40;99733.84;5097588;27;20124;-56
2022/07/24 03:00:08;;;;;;;21.13;11.35;;;;;;;15.26;80.30;99731.63;5122420;27;20039;-56
2022/07/24 03:02:34;;;;;;;17.83;10.77;;;;;;;15.10;81.64;99733.44;5123520;27;20019;-56
2022/07/24 03:04:59;;;;;;;16.88;10.65;;;;;;;15.12;82.45;99730.44;5121865;27;20044;-57
2022/07/24 03:07:25;;;;;;;17.83;12.15;;;;;;;15.07;82.25;99738.53;5127735;27;20385;-56
2022/07/24 03:09:50;;;;;;;16.67;11.57;;;;;;;15.18;81.43;99725.91;5123637;27;20472;-56
2022/07/24 03:12:15;;;;;;;17.55;11.82;;;;;;;14.96;81.86;99728.75;5120089;27;20038;-55
2022/07/24 03:14:41;;;;;;;21.67;11.57;;;;;;;15.02;81.95;99722.28;5106691;27;20027;-55
2022/07/24 03:17:06;;;;;;;17.35;12.45;;;;;;;15.14;80.92;99724.81;5123437;27;20035;-56
2022/07/24 03:19:32;;;;;;;23.13;11.75;;;;;;;15.25;79.90;99727.31;5103853;27;20023;-56
2022/07/24 03:21:57;;;;;;;21.05;11.77;;;;;;;15.19;80.44;99724.84;5122331;27;20028;-56
2022/07/24 03:24:22;;;;;;;18.52;11.75;;;;;;;15.12;81.64;99721.53;5089550;28;20062;-56
2022/07/24 03:26:48;;;;;;;21.27;11.68;;;;;;;15.11;81.53;99723.44;5121313;27;20027;-55
2022/07/24 03:29:13;;;;;;;19.45;12.57;;;;;;;15.01;82.15;99726.06;5128461;27;20473;-56
2022/07/24 03:31:39;;;;;;;18.17;12.15;;;;;;;15.00;82.12;99719.03;5121981;27;20031;-56
2022/07/24 03:34:05;;;;;;;19.38;12.43;;;;;;;15.12;81.25;99719.66;5107851;28;20081;-56
2022/07/24 03:36:31;;;;;;;14.93;10.93;;;;;;;15.28;79.67;99725.97;5118924;27;20028;-56
2022/07/24 03:38:56;;;;;;;17.80;11.07;;;;;;;15.01;80.87;99715.28;5123730;27;20042;-56
2022/07/24 03:41:22;;;;;;;20.90;11.88;;;;;;;14.98;80.42;99722.00;5117714;27;20034;-57
2022/07/24 03:43:47;;;;;;;18.10;11.57;;;;;;;14.84;82.15;99727.03;5102448;28;20038;-56
2022/07/24 03:46:13;;;;;;;17.60;10.93;;;;;;;14.87;81.86;99726.50;5121277;27;20605;-55
2022/07/24 03:48:38;;;;;;;18.33;11.68;;;;;;;14.81;82.19;99726.75;5125368;27;20024;-57
2022/07/24 03:51:04;;;;;;;17.08;11.20;;;;;;;14.74;83.06;99726.94;5118565;27;20028;-56
2022/07/24 03:53:29;;;;;;;19.73;12.15;;;;;;;14.74;84.32;99732.34;5121293;27;20033;-56
2022/07/24 03:55:55;;;;;;;18.95;11.65;;;;;;;14.84;82.22;99727.03;5121550;27;20054;-56
2022/07/24 03:58:20;;;;;;;20.83;11.80;;;;;;;15.03;81.82;99726.63;5121119;27;20019;-56
2022/07/24 04:00:45;;;;;;;15.43;10.85;;;;;;;15.28;81.76;99718.69;5105094;27;20023;-56
2022/07/24 04:03:11;;;;;;;19.52;12.18;;;;;;;15.41;80.41;99722.81;5122438;27;20037;-57
2022/07/24 04:05:36;;;;;;;18.05;11.65;;;;;;;15.97;77.93;99730.34;5102418;27;20043;-56
2022/07/24 04:08:02;;;;;;;18.52;11.68;;;;;;;16.34;75.25;99726.66;5122463;27;20028;-55
2022/07/24 04:10:27;;;;;;;18.92;11.40;;;;;;;16.35;74.69;99731.81;5120546;27;20546;-57
2022/07/24 04:12:53;;;;;;;19.45;11.15;;;;;;;16.60;73.47;99739.16;5125638;27;20150;-56
2022/07/24 04:15:18;;;;;;;17.45;10.60;;;;;;;16.74;73.26;99738.59;5114766;27;20064;-56
2022/07/24 04:17:43;;;;;;;16.38;10.02;;;;;;;17.07;73.09;99739.16;5105817;28;20066;-55
2022/07/24 04:20:10;;;;;;;15.20;10.07;;;;;;;16.78;72.13;99742.44;5118093;27;20019;-57
2022/07/24 04:22:35;;;;;;;18.90;10.77;;;;;;;16.60;73.14;99736.44;5120678;27;20052;-56
2022/07/24 04:25:01;;;;;;;18.27;10.35;;;;;;;17.12;72.77;99749.97;5123110;27;20477;-56
2022/07/24 04:27:26;;;;;;;18.50;10.60;;;;;;;17.87;69.61;99745.47;5123460;27;20050;-57
2022/07/24 04:29:51;;;;;;;18.67;9.93;;;;;;;18.38;67.00;99738.16;5116197;27;20378;-57
2022/07/24 04:32:17;;;;;;;18.90;11.75;;;;;;;17.84;68.54;99737.88;5117248;27;20461;-57
2022/07/24 04:34:42;;;;;;;20.92;11.38;;;;;;;18.12;69.03;99738.28;5122205;27;20055;-56
2022/07/24 04:37:08;;;;;;;14.80;9.75;;;;;;;18.94;65.36;99743.16;5103713;27;20022;-57
2022/07/24 04:39:33;;;;;;;28.48;10.32;;;;;;;19.49;63.22;99740.97;5119066;27;20027;-56
2022/07/24 04:41:58;;;;;;;18.30;10.10;;;;;;;20.26;60.98;99742.75;5118594;27;20020;-57
2022/07/24 04:44:24;;;;;;;20.45;11.05;;;;;;;19.59;63.49;99748.19;5130133;27;20317;-56
2022/07/24 04:46:49;;;;;;;16.45;9.82;;;;;;;19.95;61.58;99751.34;5124348;27;20477;-56
2022/07/24 04:49:15;;;;;;;14.82;9.93;;;;;;;19.73;62.16;99749.16;5125172;27;20362;-57
2022/07/24 04:51:40;;;;;;;16.45;9.82;;;;;;;19.50;63.27;99744.53;5118006;27;20382;-57
2022/07/24 04:54:05;;;;;;;17.08;10.27;;;;;;;20.86;59.83;99755.75;5102234;27;20031;-56
2022/07/24 04:56:32;;;;;;;16.70;10.10;;;;;;;21.72;56.62;99747.94;5102294;28;20377;-57
2022/07/24 04:58:58;;;;;;;14.38;10.27;;;;;;;21.72;55.91;99756.13;5094079;27;20536;-56
2022/07/24 05:01:23;;;;;;;18.45;10.27;;;;;;;21.66;56.26;99753.78;5101669;27;20042;-57
2022/07/24 05:03:49;;;;;;;21.13;10.95;;;;;;;21.44;56.41;99760.75;5122055;27;20031;-57
2022/07/24 05:06:14;;;;;;;17.13;10.32;;;;;;;21.56;57.36;99759.44;5119433;27;20020;-57
2022/07/24 05:08:39;;;;;;;20.55;11.02;;;;;;;21.37;56.64;99754.88;5123698;27;20023;-56
2022/07/24 05:11:05;;;;;;;24.48;10.88;;;;;;;20.44;59.64;99752.00;5124087;27;20037;-57
2022/07/24 05:13:30;;;;;;;26.27;12.25;;;;;;;20.54;59.75;99756.50;5101447;27;20027;-57
2022/07/24 05:15:56;;;;;;;18.05;10.77;;;;;;;20.93;59.05;99747.19;5116256;27;20385;-57
2022/07/24 05:18:21;;;;;;;19.65;12.32;;;;;;;20.98;58.49;99756.09;5120267;27;20461;-57
2022/07/24 05:20:46;;;;;;;20.60;11.32;;;;;;;22.11;56.03;99754.75;5116597;27;20032;-58
2022/07/24 05:23:12;;;;;;;20.67;12.07;;;;;;;21.70;57.33;99754.81;5116981;27;20035;-56
2022/07/24 05:25:37;;;;;;;22.23;12.02;;;;;;;21.65;56.60;99763.09;5126788;27;20023;-56
2022/07/24 05:28:03;;;;;;;19.00;12.00;;;;;;;21.85;56.26;99753.69;5119582;27;20042;-57
2022/07/24 05:30:28;;;;;;;17.95;12.27;;;;;;;21.51;57.44;99752.16;5123398;27;20024;-56
2022/07/24 05:32:54;;;;;;;18.77;11.63;;;;;;;21.48;57.51;99750.06;5122676;27;20027;-56
2022/07/24 05:35:19;;;;;;;19.58;11.75;;;;;;;21.96;56.51;99752.34;5122177;27;20388;-56
2022/07/24 05:37:45;;;;;;;18.33;11.05;;;;;;;22.35;55.92;99753.72;5109211;27;20487;-57
2022/07/24 05:40:11;;;;;;;19.58;11.52;;;;;;;22.52;55.69;99755.81;5122144;27;20076;-56
2022/07/24 05:42:36;;;;;;;19.85;11.82;;;;;;;22.96;54.02;99751.44;5098261;27;20073;-57
2022/07/24 05:45:02;;;;;;;20.35;11.45;;;;;;;23.37;53.05;99753.16;5119933;27;20077;-56
2022/07/24 05:47:28;;;;;;;17.05;11.52;;;;;;;24.37;50.15;99759.88;5119897;27;20032;-57
2022/07/24 05:49:53;;;;;;;18.25;11.13;;;;;;;24.57;50.21;99753.78;5117559;27;20427;-57
2022/07/24 05:52:19;;;;;;;21.13;11.73;;;;;;;23.77;52.72;99756.69;5122025;27;20027;-56
2022/07/24 05:54:44;;;;;;;17.48;11.38;;;;;;;24.81;51.00;99766.16;5118443;28;20019;-56
2022/07/24 05:57:09;;;;;;;18.05;10.38;;;;;;;24.78;50.45;99753.09;5117232;28;20034;-57
2022/07/24 05:59:35;;;;;;;16.33;11.02;;;;;;;25.23;49.26;99752.72;5116781;28;20077;-55
2022/07/24 06:02:03;;;;;;;24.73;11.63;;;;;;;24.88;50.16;99758.25;5120477;28;20024;-57
2022/07/24 06:04:29;;;;;;;21.90;12.07;;;;;;;24.66;50.70;99753.75;5107260;28;20042;-55
2022/07/24 06:06:55;;;;;;;20.55;11.95;;;;;;;25.15;49.60;99760.59;5117396;28;20035;-57
2022/07/24 06:09:20;;;;;;;16.55;12.38;;;;;;;24.91;50.16;99749.38;5124277;28;20060;-57
2022/07/24 06:11:45;;;;;;;20.80;12.68;;;;;;;23.61;53.27;99750.00;5124589;28;20076;-57
2022/07/24 06:14:11;;;;;;;22.88;12.07;;;;;;;24.71;51.19;99746.19;5119868;28;20019;-57
2022/07/24 06:16:36;;;;;;;20.50;11.82;;;;;;;25.16;49.47;99734.84;5115547;28;20072;-57
2022/07/24 06:19:02;;;;;;;20.05;11.95;;;;;;;24.67;50.18;99737.00;5123655;27;20389;-56
2022/07/24 06:21:27;;;;;;;20.10;11.90;;;;;;;25.65;49.15;99737.19;5106877;27;20019;-57
2022/07/24 06:23:53;;;;;;;22.25;11.70;;;;;;;26.42;46.79;99739.78;5122306;27;20027;-57
2022/07/24 06:26:18;;;;;;;23.08;12.27;;;;;;;26.87;45.82;99742.63;5122669;27;20045;-57
2022/07/24 06:28:43;;;;;;;19.02;11.93;;;;;;;26.92;45.80;99743.56;5117302;27;20020;-57
2022/07/24 06:31:09;;;;;;;18.88;12.55;;;;;;;27.04;45.21;99751.84;5103254;28;20039;-57
2022/07/24 06:33:34;;;;;;;19.92;11.68;;;;;;;27.00;45.35;99748.16;5098481;27;20059;-57
2022/07/24 06:36:00;;;;;;;22.63;12.85;;;;;;;27.49;43.82;99751.03;5125583;27;20138;-57
2022/07/24 06:38:25;;;;;;;19.77;12.52;;;;;;;28.33;41.81;99756.00;5112539;27;20023;-57
2022/07/24 06:40:51;;;;;;;23.80;12.82;;;;;;;28.90;40.76;99752.13;5123735;27;20027;-57
2022/07/24 06:43:16;;;;;;;22.23;11.95;;;;;;;29.76;39.41;99753.56;5097416;27;20041;-57
2022/07/24 06:45:43;;;;;;;21.95;11.68;;;;;;;29.19;39.76;99752.94;5122428;27;20036;-58
2022/07/24 06:48:08;;;;;;;20.92;11.20;;;;;;;27.90;42.87;99751.97;5125680;27;20042;-57
2022/07/24 06:50:34;;;;;;;22.05;12.05;;;;;;;28.44;41.28;99751.63;5123229;27;20040;-57
2022/07/24 06:52:59;;;;;;;21.85;12.63;;;;;;;29.91;39.28;99744.44;5121263;27;20016;-57
2022/07/24 06:55:24;;;;;;;26.00;12.73;;;;;;;30.33;38.26;99748.53;5126920;27;20027;-57
2022/07/24 06:57:50;;;;;;;18.55;11.93;;;;;;;30.03;38.58;99743.50;5120346;27;20031;-57
2022/07/24 07:00:15;;;;;;;18.75;12.23;;;;;;;28.58;41.07;99746.56;5103732;27;20024;-56
2022/07/24 07:02:41;;;;;;;50.60;12.23;;;;;;;30.37;38.77;99746.66;5113217;27;20032;-57
2022/07/24 07:05:07;;;;;;;27.35;11.13;;;;;;;31.86;35.98;99749.75;5128136;27;20103;-56
2022/07/24 07:07:32;;;;;;;20.90;11.77;;;;;;;30.93;36.81;99751.75;5125114;27;20111;-56
2022/07/24 07:09:58;;;;;;;17.40;10.95;;;;;;;30.38;38.00;99751.00;5122618;27;20015;-56
2022/07/24 07:12:23;;;;;;;17.92;11.02;;;;;;;31.44;36.19;99757.00;5120149;27;20030;-57
2022/07/24 07:14:49;;;;;;;19.42;11.65;;;;;;;31.52;36.16;99764.25;5120198;27;20027;-56
2022/07/24 07:17:15;;;;;;;19.50;12.18;;;;;;;32.92;34.08;99760.63;5120050;27;20525;-57
2022/07/24 07:19:42;;;;;;;16.77;10.98;;;;;;;32.37;34.59;99754.81;5118978;27;20051;-57
2022/07/24 07:22:08;;;;;;;19.17;12.45;;;;;;;32.17;34.67;99746.63;5111757;27;20031;-57
2022/07/24 07:24:33;;;;;;;18.65;11.88;;;;;;;32.38;34.69;99754.44;5127404;27;20038;-57
2022/07/24 07:26:58;;;;;;;19.17;11.63;;;;;;;32.38;34.71;99743.34;5122169;27;20542;-57
2022/07/24 07:29:24;;;;;;;24.00;12.30;;;;;;;31.71;34.92;99752.28;5124722;27;20040;-57
2022/07/24 07:31:49;;;;;;;20.65;12.48;;;;;;;30.74;36.96;99747.78;5105193;27;20027;-57
2022/07/24 07:34:15;;;;;;;19.13;11.52;;;;;;;31.72;36.18;99747.53;5118093;27;20374;-57
2022/07/24 07:36:40;;;;;;;20.65;10.90;;;;;;;32.49;34.90;99748.25;5121438;27;20027;-57
2022/07/24 07:39:05;;;;;;;20.65;11.48;;;;;;;31.77;36.11;99741.69;5119295;27;20470;-57
2022/07/24 07:41:31;;;;;;;15.75;10.18;;;;;;;32.13;35.02;99739.47;5124321;27;20035;-56
2022/07/24 07:43:58;;;;;;;16.48;11.70;;;;;;;32.39;34.76;99744.94;5124499;27;20031;-56
2022/07/24 07:46:25;;;;;;;16.05;10.95;;;;;;;31.44;35.80;99739.59;5108014;27;20058;-56
2022/07/24 07:48:50;;;;;;;19.00;10.80;;;;;;;32.02;35.09;99748.41;5122074;27;20426;-56
2022/07/24 07:51:16;;;;;;;18.15;10.75;;;;;;;32.80;33.99;99736.72;5115357;27;20031;-55
2022/07/24 07:53:41;;;;;;;19.70;11.43;;;;;;;32.73;33.67;99736.66;5102248;27;20042;-56
2022/07/24 07:56:07;;;;;;;21.13;11.35;;;;;;;31.92;34.91;99742.69;5103958;28;20028;-55
2022/07/24 07:58:32;;;;;;;19.60;10.43;;;;;;;32.04;34.54;99734.19;5109839;27;20039;-55
2022/07/24 08:01:01;;;;;;;17.90;10.05;;;;;;;31.64;35.58;99732.78;5124163;27;20071;-55
2022/07/24 08:03:26;;;;;;;16.25;9.77;;;;;;;31.96;35.20;99744.38;5093848;28;20471;-56
2022/07/24 08:05:51;;;;;;;15.27;9.75;;;;;;;33.47;32.55;99729.41;5104323;28;20039;-56
2022/07/24 08:08:17;;;;;;;16.70;10.13;;;;;;;33.97;31.73;99727.00;5088280;28;20028;-56
2022/07/24 08:10:42;;;;;;;14.98;9.13;;;;;;;34.23;32.36;99723.19;5096596;28;20023;-56
2022/07/24 08:13:08;;;;;;;16.10;9.80;;;;;;;33.62;32.82;99731.13;5101015;28;20026;-56
2022/07/24 08:15:33;;;;;;;17.40;9.32;;;;;;;33.29;32.66;99727.28;5103413;28;20040;-56
2022/07/24 08:17:58;;;;;;;15.15;9.02;;;;;;;33.20;33.69;99720.47;5088873;28;20061;-56
2022/07/24 08:20:24;;;;;;;15.07;9.20;;;;;;;33.20;32.96;99724.06;5097776;28;20020;-56
2022/07/24 08:22:50;;;;;;;14.75;8.80;;;;;;;33.37;32.37;99719.81;5096278;28;20479;-56
2022/07/24 08:25:16;;;;;;;14.82;9.07;;;;;;;33.05;32.88;99722.31;5104060;28;20046;-56
2022/07/24 08:27:41;;;;;;;15.25;9.50;;;;;;;32.54;32.97;99718.19;5091512;28;20027;-56
2022/07/24 08:30:07;;;;;;;15.70;9.63;;;;;;;32.26;34.57;99723.38;5102794;28;20040;-57
2022/07/24 08:32:33;;;;;;;15.02;9.10;;;;;;;32.48;34.79;99716.91;5100749;28;20012;-56
2022/07/24 08:34:58;;;;;;;15.50;9.90;;;;;;;32.92;33.48;99715.41;5102367;28;20032;-56
2022/07/24 08:37:24;;;;;;;16.40;9.27;;;;;;;33.45;31.67;99715.09;5098294;28;20375;-55
2022/07/24 08:39:49;;;;;;;17.27;9.30;;;;;;;33.49;32.72;99710.38;5102745;28;20032;-56
2022/07/24 08:42:15;;;;;;;18.63;8.63;;;;;;;33.86;32.10;99712.25;5101617;28;20031;-56
2022/07/24 08:44:40;;;;;;;14.30;8.50;;;;;;;33.32;32.59;99711.03;5094259;28;20026;-56
2022/07/24 08:47:08;;;;;;;15.52;9.18;;;;;;;33.01;32.72;99713.13;5102484;28;20571;-56
2022/07/24 08:49:33;;;;;;;17.27;8.73;;;;;;;32.51;33.92;99704.31;5096010;28;20028;-56
2022/07/24 08:51:59;;;;;;;13.98;8.30;;;;;;;31.68;33.26;99708.72;5080709;28;20390;-55
2022/07/24 08:54:25;;;;;;;13.88;7.78;;;;;;;32.90;32.67;99707.50;5101901;28;20035;-55
2022/07/24 08:56:50;;;;;;;12.55;7.68;;;;;;;33.26;31.28;99705.84;5100561;28;20023;-55
2022/07/24 08:59:17;;;;;;;13.70;7.85;;;;;;;30.71;33.42;99709.81;5100925;28;20484;-55
2022/07/24 09:01:43;;;;;;;13.63;7.63;;;;;;;29.18;35.86;99704.41;5099252;28;20515;-55
2022/07/24 09:04:51;;;;;;;16.05;8.27;;;;;;;29.69;36.06;99701.72;5093699;27;20394;-58
2022/07/24 09:07:23;;;;;;;16.33;8.20;;;;;;;32.34;32.33;99700.91;5060095;28;20085;-55
2022/07/24 09:10:08;;;;;;;13.13;7.53;;;;;;;32.17;31.59;99704.25;5086730;28;20041;-56
2022/07/24 09:12:35;;;;;;;11.60;7.97;;;;;;;31.89;30.56;99705.44;5088412;28;20028;-56
2022/07/24 09:15:01;;;;;;;12.95;8.43;;;;;;;32.95;30.11;99706.31;5093130;28;20066;-57
2022/07/24 09:17:26;;;;;;;12.90;7.72;;;;;;;32.97;30.48;99701.97;5089272;28;20032;-56
2022/07/24 09:20:01;;;;;;;17.02;8.30;;;;;;;32.59;30.96;99705.97;5089282;28;20062;-56
2022/07/24 09:22:30;;;;;;;14.45;8.02;;;;;;;33.03;30.87;99694.16;5088975;28;20054;-57
2022/07/24 09:25:16;;;;;;;10.82;7.90;;;;;;;31.79;31.98;99695.00;5088197;28;20466;-56
2022/07/24 09:27:45;;;;;;;14.45;8.00;;;;;;;29.38;35.23;99678.50;5087842;28;20055;-55
2022/07/24 09:30:20;;;;;;;13.07;8.10;;;;;;;30.93;32.56;99682.56;5087541;28;20029;-56
2022/07/24 09:32:51;;;;;;;14.45;8.00;;;;;;;32.70;30.24;99676.38;5087636;28;20104;-56
2022/07/24 09:35:17;;;;;;;14.63;8.55;;;;;;;32.99;29.65;99676.63;5089205;28;20089;-55
2022/07/24 09:37:53;;;;;;;16.70;8.65;;;;;;;33.26;29.92;99678.06;5088958;28;20013;-56
2022/07/24 09:40:18;;;;;;;16.95;8.00;;;;;;;32.86;30.78;99676.91;5087375;28;20471;-56
2022/07/24 09:42:44;;;;;;;16.27;8.43;;;;;;;33.63;29.59;99671.63;5088512;28;20073;-57
2022/07/24 09:45:10;;;;;;;13.73;8.60;;;;;;;29.65;33.77;99675.94;5088053;28;20039;-55
2022/07/24 09:47:36;;;;;;;19.17;8.60;;;;;;;29.07;35.68;99684.81;5088487;28;20023;-56
2022/07/24 09:50:12;;;;;;;14.35;9.20;;;;;;;31.03;32.37;99679.19;5087592;28;20097;-56
2022/07/24 09:52:38;;;;;;;13.15;8.00;;;;;;;31.61;32.04;99666.25;5088593;28;20033;-56
2022/07/24 09:55:03;;;;;;;19.20;10.80;;;;;;;32.84;30.39;99670.94;5087909;28;20515;-56
2022/07/24 09:57:30;;;;;;;15.80;8.90;;;;;;;31.24;32.08;99672.38;5088742;28;20115;-56
2022/07/24 09:59:59;;;;;;;14.95;8.63;;;;;;;32.39;31.38;99667.28;5088363;28;20027;-56
2022/07/24 10:02:29;;;;;;;14.55;8.57;;;;;;;29.62;33.79;99662.84;5086976;28;20380;-56
2022/07/24 10:04:55;;;;;;;12.70;8.75;;;;;;;30.78;33.11;99658.53;5093389;28;20028;-56
2022/07/24 10:07:22;;;;;;;16.15;8.55;;;;;;;29.45;35.46;99655.75;5089037;28;20044;-56
2022/07/24 10:09:48;;;;;;;14.75;8.25;;;;;;;29.37;34.62;99652.03;5088084;28;20456;-56
2022/07/24 10:12:19;;;;;;;21.00;9.45;;;;;;;30.21;33.99;99642.44;5070480;28;20584;-56
2022/07/24 10:14:45;;;;;;;19.10;9.23;;;;;;;32.66;31.13;99647.78;5079747;28;20111;-56
2022/07/24 10:17:11;;;;;;;12.80;8.38;;;;;;;29.93;33.47;99642.66;5074262;28;20394;-56
2022/07/24 10:19:42;;;;;;;13.55;8.88;;;;;;;28.94;35.25;99637.16;5072955;28;20029;-56
2022/07/24 10:22:11;;;;;;;15.40;9.10;;;;;;;29.80;34.16;99636.44;5073319;28;20278;-55
2022/07/24 10:24:42;;;;;;;19.05;8.30;;;;;;;30.32;33.45;99639.91;5074834;28;20060;-55
2022/07/24 10:27:08;;;;;;;15.20;7.97;;;;;;;30.71;31.62;99632.34;5080555;28;20086;-56
2022/07/24 10:29:34;;;;;;;15.23;8.18;;;;;;;31.34;30.40;99622.72;5056201;28;20463;-57
2022/07/24 10:32:00;;;;;;;13.05;7.75;;;;;;;32.21;30.34;99624.69;5073225;28;20028;-55
2022/07/24 10:34:56;;;;;;;11.88;8.13;;;;;;;31.37;31.36;99626.69;5079704;28;20027;-56
2022/07/24 10:37:55;;;;;;;15.35;8.70;;;;;;;31.41;32.30;99619.28;5074328;28;20462;-57
2022/07/24 10:40:30;;;;;;;22.27;9.13;;;;;;;31.45;31.92;99619.31;5074219;28;20385;-56
2022/07/24 10:43:05;;;;;;;12.65;8.38;;;;;;;31.06;31.87;99617.53;5073451;28;20505;-56
2022/07/24 10:45:33;;;;;;;13.68;8.40;;;;;;;31.69;31.37;99612.53;5074233;28;20029;-56
2022/07/24 10:48:22;;;;;;;17.45;8.00;;;;;;;31.49;31.58;99598.81;5079927;28;20395;-56
2022/07/24 10:50:56;;;;;;;13.23;7.68;;;;;;;33.13;29.48;99614.91;5080719;28;20040;-56
2022/07/24 10:53:22;;;;;;;13.73;7.97;;;;;;;31.83;30.23;99604.41;5074355;28;20510;-56
2022/07/24 10:55:47;;;;;;;12.88;8.30;;;;;;;30.17;32.24;99605.63;5074083;28;20062;-56
2022/07/24 10:58:15;;;;;;;15.98;8.75;;;;;;;29.50;33.42;99596.69;5072585;28;20078;-55
2022/07/24 11:00:43;;;;;;;15.68;8.07;;;;;;;31.82;31.27;99586.19;5074559;28;20021;-55
2022/07/24 11:03:22;;;;;;;11.47;7.80;;;;;;;30.85;32.16;99598.63;5073165;28;20047;-56
2022/07/24 11:06:06;;;;;;;18.35;8.80;;;;;;;31.44;32.02;99590.84;5073939;28;20429;-55
2022/07/24 11:08:38;;;;;;;11.68;8.15;;;;;;;29.44;33.25;99594.22;5078471;28;20372;-55
2022/07/24 11:11:09;;;;;;;12.70;8.10;;;;;;;31.33;30.98;99581.56;5073388;28;20024;-55
2022/07/24 11:13:34;;;;;;;12.60;7.90;;;;;;;31.56;30.38;99576.75;5073303;28;20033;-55
2022/07/24 11:16:14;;;;;;;11.30;7.15;;;;;;;30.66;30.75;99569.03;5073600;28;20074;-55